Time;durP1;ratioP1;P1;durP2;ratioP2;P2;SDS_P1;SDS_P2;PMS_P1;PMS_P2;Temp;Humidity;BMP_temperature;BMP_pressure;BME280_temperature;BME280_humidity;BME280_pressure;Samples;Min_cycle;Max_cycle;Signal;HPM_P1;HPM_P2
2021/12/11 00:00:29;;;;;;;7.60;2.40;;;7.20;1.00;;;;;;5074333;28;20210;-82
2021/12/11 00:03:00;;;;;;;6.13;2.07;;;7.30;1.00;;;;;;5073455;28;20206;-86
2021/12/11 00:05:28;;;;;;;8.37;2.40;;;7.30;1.00;;;;;;5073886;28;20653;-84
2021/12/11 00:07:56;;;;;;;8.30;2.87;;;7.30;1.00;;;;;;5073848;28;20205;-86
2021/12/11 00:10:28;;;;;;;6.07;1.67;;;7.30;1.00;;;;;;5074241;28;20605;-85
2021/12/11 00:13:00;;;;;;;8.00;2.20;;;7.30;1.00;;;;;;5074097;28;20271;-85
2021/12/11 00:15:32;;;;;;;6.90;1.77;;;7.30;1.00;;;;;;5074073;28;20198;-85
2021/12/11 00:18:02;;;;;;;7.87;2.67;;;7.30;1.00;;;;;;5073594;28;20209;-85
2021/12/11 00:20:32;;;;;;;4.00;2.00;;;7.40;1.00;;;;;;5073825;28;20214;-85
2021/12/11 00:23:00;;;;;;;10.77;1.93;;;7.30;1.00;;;;;;5071877;28;20210;-82
2021/12/11 00:25:29;;;;;;;4.67;1.47;;;7.30;1.00;;;;;;5073971;28;20263;-85
2021/12/11 00:28:03;;;;;;;4.50;2.07;;;7.30;1.00;;;;;;5073373;28;20248;-84
2021/12/11 00:30:35;;;;;;;5.67;1.70;;;7.30;1.00;;;;;;5073167;28;20299;-83
2021/12/11 00:33:06;;;;;;;6.20;1.73;;;7.30;1.00;;;;;;5073087;28;20643;-83
2021/12/11 00:35:34;;;;;;;7.40;2.17;;;7.30;1.00;;;;;;5072858;28;20622;-81
2021/12/11 00:38:04;;;;;;;6.33;1.57;;;7.30;1.00;;;;;;5073768;28;20198;-86
2021/12/11 00:40:34;;;;;;;8.60;2.20;;;7.20;1.00;;;;;;5073482;28;20646;-85
2021/12/11 00:43:04;;;;;;;7.80;2.20;;;7.20;1.00;;;;;;5073086;28;20259;-85
2021/12/11 00:45:34;;;;;;;3.40;1.60;;;7.20;1.00;;;;;;5073153;28;20213;-85
2021/12/11 00:48:06;;;;;;;6.57;1.60;;;7.20;1.00;;;;;;5073220;28;20209;-85
2021/12/11 00:50:35;;;;;;;15.13;3.83;;;7.20;1.00;;;;;;5072494;28;20606;-81
2021/12/11 00:53:09;;;;;;;7.03;2.37;;;7.20;1.00;;;;;;5072475;28;20661;-85
2021/12/11 00:55:41;;;;;;;6.13;1.40;;;7.20;1.00;;;;;;5072903;28;20272;-85
2021/12/11 00:58:11;;;;;;;9.03;3.00;;;7.20;1.00;;;;;;5073479;28;20247;-85
2021/12/11 01:00:45;;;;;;;5.00;1.50;;;7.10;1.00;;;;;;5072387;28;20251;-84
2021/12/11 01:03:17;;;;;;;2.90;1.40;;;7.20;1.00;;;;;;5072325;28;20205;-84
2021/12/11 01:05:47;;;;;;;8.27;1.77;;;7.10;1.00;;;;;;5071597;28;20259;-80
2021/12/11 01:08:23;;;;;;;8.17;1.37;;;7.20;1.00;;;;;;5071300;28;20202;-81
2021/12/11 01:10:55;;;;;;;5.30;1.50;;;7.10;1.00;;;;;;5071356;28;20601;-81
2021/12/11 01:13:25;;;;;;;4.13;1.20;;;7.10;1.00;;;;;;5071770;28;20674;-82
2021/12/11 01:15:58;;;;;;;4.67;1.20;;;7.10;1.00;;;;;;5070996;28;20803;-82
2021/12/11 01:18:34;;;;;;;5.50;2.47;;;7.10;1.00;;;;;;5072227;28;20206;-86
2021/12/11 01:21:13;;;;;;;10.83;1.83;;;7.10;1.00;;;;;;5072875;28;20217;-85
2021/12/11 01:24:07;;;;;;;5.17;1.50;;;7.10;1.00;;;;;;5071876;28;20633;-82
2021/12/11 01:26:37;;;;;;;4.23;2.00;;;7.10;1.00;;;;;;5071677;28;20213;-81
2021/12/11 01:29:05;;;;;;;6.50;1.40;;;7.10;1.00;;;;;;5071463;28;20261;-83
2021/12/11 01:31:33;;;;;;;3.73;1.43;;;7.10;1.00;;;;;;5070987;28;20234;-79
2021/12/11 01:34:00;;;;;;;7.63;1.93;;;7.10;1.00;;;;;;5071397;28;20202;-80
2021/12/11 01:36:27;;;;;;;6.93;1.40;;;7.10;1.00;;;;;;5071902;28;20202;-81
2021/12/11 01:38:56;;;;;;;4.63;1.57;;;7.10;1.00;;;;;;5071139;28;20198;-80
2021/12/11 01:41:24;;;;;;;7.37;1.53;;;7.10;1.00;;;;;;5071450;28;20279;-82
2021/12/11 01:43:57;;;;;;;5.03;1.40;;;7.10;1.00;;;;;;5071476;28;20202;-82
2021/12/11 01:46:27;;;;;;;3.80;1.57;;;7.10;1.00;;;;;;5071953;28;20202;-85
2021/12/11 01:49:01;;;;;;;4.63;1.57;;;7.00;1.00;;;;;;5071390;28;20231;-83
2021/12/11 01:51:33;;;;;;;4.83;1.50;;;7.10;1.00;;;;;;5071668;28;20265;-82
2021/12/11 01:54:05;;;;;;;4.97;1.50;;;7.10;1.00;;;;;;5071803;28;20206;-82
2021/12/11 01:56:34;;;;;;;5.33;1.87;;;7.00;1.00;;;;;;5071711;28;20263;-82
2021/12/11 01:59:07;;;;;;;9.17;3.47;;;7.00;1.00;;;;;;5070508;28;20210;-80
2021/12/11 02:01:38;;;;;;;5.40;1.63;;;7.00;1.00;;;;;;5070754;28;20206;-80
2021/12/11 02:04:07;;;;;;;6.10;1.50;;;7.00;1.00;;;;;;5071008;28;20205;-80
2021/12/11 02:06:38;;;;;;;3.50;1.60;;;7.00;1.00;;;;;;5070644;28;20631;-80
2021/12/11 02:09:13;;;;;;;5.57;1.73;;;7.00;1.00;;;;;;5070866;28;20202;-79
2021/12/11 02:11:40;;;;;;;6.77;2.20;;;7.00;1.00;;;;;;5070362;28;20651;-80
2021/12/11 02:14:10;;;;;;;3.53;1.83;;;7.00;1.00;;;;;;5070842;28;20248;-81
2021/12/11 02:16:42;;;;;;;5.33;2.30;;;7.00;1.00;;;;;;5070543;28;20206;-80
2021/12/11 02:19:14;;;;;;;7.37;2.30;;;6.90;1.00;;;;;;5069797;28;20198;-80
2021/12/11 02:22:09;;;;;;;8.40;1.90;;;6.90;1.00;;;;;;5070432;28;20206;-81
2021/12/11 02:24:39;;;;;;;2.27;1.30;;;6.90;1.00;;;;;;5070203;28;20214;-80
2021/12/11 02:27:09;;;;;;;7.43;1.60;;;6.90;1.00;;;;;;5070678;28;20617;-80
2021/12/11 02:29:42;;;;;;;6.30;2.80;;;6.90;1.00;;;;;;5070170;28;20738;-79
2021/12/11 02:32:14;;;;;;;9.43;3.00;;;6.90;1.00;;;;;;5070510;28;20229;-80
2021/12/11 02:34:46;;;;;;;5.77;1.50;;;6.90;1.00;;;;;;5070031;28;20198;-80
2021/12/11 02:37:21;;;;;;;5.83;2.00;;;6.90;1.00;;;;;;5069498;28;20267;-80
2021/12/11 02:39:52;;;;;;;4.70;1.77;;;6.90;1.00;;;;;;5070327;28;20205;-82
2021/12/11 02:42:26;;;;;;;6.40;1.60;;;6.90;1.00;;;;;;5071273;28;20372;-84
2021/12/11 02:44:58;;;;;;;3.60;1.63;;;6.90;1.00;;;;;;5070524;28;20263;-84
2021/12/11 02:47:32;;;;;;;5.93;2.10;;;6.90;1.00;;;;;;5070980;28;20202;-82
2021/12/11 02:50:04;;;;;;;2.60;1.60;;;6.90;1.00;;;;;;5070921;28;20263;-83
2021/12/11 02:52:37;;;;;;;5.63;1.57;;;7.00;1.00;;;;;;5071158;28;20283;-83
2021/12/11 02:55:10;;;;;;;4.13;1.50;;;6.90;1.00;;;;;;5070965;28;20264;-83
2021/12/11 02:57:42;;;;;;;8.30;1.67;;;7.00;1.00;;;;;;5070401;28;20206;-83
2021/12/11 03:00:15;;;;;;;6.80;1.47;;;6.90;1.00;;;;;;5070983;28;20248;-84
2021/12/11 03:02:47;;;;;;;3.67;1.23;;;6.90;1.00;;;;;;5070670;28;20267;-84
2021/12/11 03:05:18;;;;;;;5.73;1.50;;;6.90;1.00;;;;;;5070841;28;20304;-83
2021/12/11 03:07:51;;;;;;;6.00;2.07;;;6.90;1.00;;;;;;5070358;28;20202;-83
2021/12/11 03:10:22;;;;;;;9.50;2.87;;;6.80;1.00;;;;;;5071093;28;20198;-87
2021/12/11 03:12:50;;;;;;;4.67;1.20;;;6.90;1.00;;;;;;5069787;28;20743;-79
2021/12/11 03:15:17;;;;;;;9.07;1.70;;;6.80;1.00;;;;;;5070262;28;20198;-79
2021/12/11 03:17:45;;;;;;;7.60;1.37;;;6.80;1.00;;;;;;5069825;28;20256;-83
2021/12/11 03:20:15;;;;;;;2.70;1.10;;;6.70;1.00;;;;;;5070272;28;20203;-82
2021/12/11 03:22:43;;;;;;;5.47;1.50;;;6.70;1.00;;;;;;5069897;28;20620;-84
2021/12/11 03:25:14;;;;;;;5.40;1.33;;;6.70;1.00;;;;;;5070574;28;20202;-82
2021/12/11 03:27:41;;;;;;;2.57;1.27;;;6.70;1.00;;;;;;5069969;28;20259;-81
2021/12/11 03:30:11;;;;;;;5.03;1.17;;;6.80;1.00;;;;;;5070692;28;20202;-82
2021/12/11 03:32:38;;;;;;;3.90;2.10;;;6.80;1.00;;;;;;5073243;28;20234;-81
2021/12/11 03:35:09;;;;;;;6.73;1.13;;;6.70;1.00;;;;;;5074279;28;20206;-84
2021/12/11 03:37:36;;;;;;;6.20;1.57;;;6.80;1.00;;;;;;5073135;28;20244;-84
2021/12/11 03:40:07;;;;;;;3.70;2.50;;;6.80;1.00;;;;;;5074764;28;20626;-85
2021/12/11 03:42:39;;;;;;;12.90;1.87;;;6.70;1.00;;;;;;5074466;28;20214;-84
2021/12/11 03:45:09;;;;;;;3.57;1.30;;;6.70;1.00;;;;;;5073344;28;20212;-85
2021/12/11 03:47:40;;;;;;;6.43;1.43;;;6.80;1.00;;;;;;5074221;28;20205;-85
2021/12/11 03:50:11;;;;;;;4.10;1.40;;;6.70;1.00;;;;;;5074370;28;20206;-84
2021/12/11 03:52:38;;;;;;;4.40;1.30;;;6.70;1.00;;;;;;5073016;28;20739;-80
2021/12/11 03:55:07;;;;;;;3.67;1.33;;;6.70;1.00;;;;;;5071840;28;20233;-81
2021/12/11 03:57:37;;;;;;;9.03;1.40;;;6.80;1.00;;;;;;5074288;28;20263;-81
2021/12/11 04:00:09;;;;;;;3.60;1.20;;;6.70;1.00;;;;;;5078389;28;20301;-84
2021/12/11 04:02:38;;;;;;;3.30;1.27;;;6.70;1.00;;;;;;5072375;28;20212;-83
2021/12/11 04:05:07;;;;;;;4.37;1.60;;;6.80;1.00;;;;;;5073799;28;20613;-82
2021/12/11 04:07:38;;;;;;;5.47;1.33;;;6.80;1.00;;;;;;5073670;28;20202;-84
2021/12/11 04:10:08;;;;;;;5.53;1.40;;;6.80;1.00;;;;;;5073397;28;20202;-84
2021/12/11 04:12:36;;;;;;;3.77;0.97;;;6.80;1.00;;;;;;5073718;28;20238;-78
2021/12/11 04:15:04;;;;;;;1.77;1.23;;;6.80;1.00;;;;;;5073732;28;20202;-78
2021/12/11 04:17:31;;;;;;;6.83;1.23;;;6.80;1.00;;;;;;5073805;28;20206;-84
2021/12/11 04:20:08;;;;;;;3.80;0.90;;;6.70;1.00;;;;;;5073209;28;20203;-85
2021/12/11 04:22:35;;;;;;;6.77;1.47;;;6.70;1.00;;;;;;5073074;28;20206;-81
2021/12/11 04:25:05;;;;;;;3.67;2.00;;;6.60;1.00;;;;;;5073529;28;20774;-85
2021/12/11 04:27:32;;;;;;;6.03;1.67;;;6.50;1.00;;;;;;5073693;28;20665;-83
2021/12/11 04:30:04;;;;;;;5.17;1.57;;;6.50;1.00;;;;;;5073197;28;20198;-84
2021/12/11 04:32:33;;;;;;;5.13;1.97;;;6.50;1.00;;;;;;5073256;28;20242;-82
2021/12/11 04:35:01;;;;;;;4.90;1.60;;;6.50;1.00;;;;;;5073082;28;20206;-81
2021/12/11 04:37:30;;;;;;;3.87;1.60;;;6.50;1.00;;;;;;5073348;28;20579;-82
2021/12/11 04:40:02;;;;;;;4.53;1.10;;;6.50;1.00;;;;;;5072432;28;20232;-84
2021/12/11 04:42:42;;;;;;;6.67;1.73;;;6.60;1.00;;;;;;5072163;28;20221;-85
2021/12/11 04:45:14;;;;;;;7.80;1.50;;;6.60;1.00;;;;;;5072827;28;20209;-81
2021/12/11 04:47:49;;;;;;;8.23;1.83;;;6.60;1.00;;;;;;5072377;28;20214;-84
2021/12/11 04:50:29;;;;;;;8.00;1.33;;;6.60;1.00;;;;;;5072445;28;20206;-84
2021/12/11 04:52:58;;;;;;;10.50;2.73;;;6.60;1.00;;;;;;5072119;28;20704;-82
2021/12/11 04:55:47;;;;;;;10.27;1.83;;;6.50;1.00;;;;;;5071961;28;20263;-84
2021/12/11 05:01:04;;;;;;;6.17;1.53;;;6.40;1.00;;;;;;5070930;28;20213;-83
2021/12/11 05:06:30;;;;;;;3.37;1.20;;;6.30;1.00;;;;;;5072364;28;20297;-82
2021/12/11 05:09:17;;;;;;;4.60;1.13;;;6.40;1.00;;;;;;5071714;28;20210;-84
2021/12/11 05:11:53;;;;;;;4.43;1.47;;;6.30;1.00;;;;;;5071416;28;20324;-84
2021/12/11 05:14:23;;;;;;;5.37;1.30;;;6.30;1.00;;;;;;5072186;28;20205;-84
2021/12/11 05:16:52;;;;;;;5.60;1.40;;;6.30;1.00;;;;;;5071587;28;20669;-82
2021/12/11 05:19:20;;;;;;;10.13;1.73;;;6.20;1.00;;;;;;5072459;28;20658;-84
2021/12/11 05:21:47;;;;;;;6.23;1.90;;;6.20;1.00;;;;;;5105060;28;20241;-85
2021/12/11 05:24:16;;;;;;;8.53;2.57;;;6.10;1.00;;;;;;5072469;28;20254;-85
2021/12/11 05:26:43;;;;;;;6.53;2.30;;;6.10;1.00;;;;;;5072416;28;20327;-83
2021/12/11 05:29:10;;;;;;;5.20;1.23;;;6.10;1.00;;;;;;5072600;28;20206;-84
2021/12/11 05:31:38;;;;;;;10.73;1.30;;;6.00;1.00;;;;;;5071880;28;20288;-86
2021/12/11 05:34:07;;;;;;;7.87;3.87;;;5.90;1.00;;;;;;5072600;28;20210;-85
2021/12/11 05:36:35;;;;;;;9.67;1.90;;;5.90;1.00;;;;;;5072553;28;20214;-85
2021/12/11 05:39:07;;;;;;;6.30;1.90;;;5.80;1.00;;;;;;5072520;28;20657;-82
2021/12/11 05:41:34;;;;;;;8.37;1.80;;;5.80;1.00;;;;;;5072255;28;20746;-85
2021/12/11 05:44:02;;;;;;;11.20;1.63;;;5.80;1.00;;;;;;5092883;28;20580;-83
2021/12/11 05:46:30;;;;;;;8.20;1.80;;;5.70;1.00;;;;;;5080624;28;20213;-87
2021/12/11 05:48:57;;;;;;;9.63;2.13;;;5.60;1.00;;;;;;5084945;28;20620;-85
2021/12/11 05:51:27;;;;;;;3.87;1.70;;;5.50;1.00;;;;;;5092066;28;20210;-85
2021/12/11 05:54:00;;;;;;;9.87;1.67;;;5.60;1.00;;;;;;5092088;28;20205;-86
2021/12/11 05:56:33;;;;;;;5.50;1.57;;;5.50;1.00;;;;;;5088210;28;20689;-87
2021/12/11 05:59:00;;;;;;;6.70;2.40;;;5.60;1.00;;;;;;5114023;27;20209;-87
2021/12/11 06:01:33;;;;;;;9.47;2.53;;;5.50;1.00;;;;;;5087713;28;20202;-86
2021/12/11 06:04:03;;;;;;;8.27;2.40;;;5.50;1.00;;;;;;5092580;28;20305;-85
2021/12/11 06:06:32;;;;;;;8.43;2.33;;;5.50;1.00;;;;;;5092409;28;20202;-86
2021/12/11 06:08:59;;;;;;;7.93;3.47;;;5.40;1.00;;;;;;5092006;28;20271;-86
2021/12/11 06:11:27;;;;;;;12.20;3.10;;;5.40;1.00;;;;;;5091960;28;20217;-86
2021/12/11 06:13:56;;;;;;;6.20;3.37;;;5.40;1.00;;;;;;5092088;28;20744;-87
2021/12/11 06:16:23;;;;;;;8.97;1.90;;;5.50;1.00;;;;;;5091894;28;20255;-88
2021/12/11 06:18:51;;;;;;;8.60;2.40;;;5.40;1.00;;;;;;5091344;28;20266;-88
2021/12/11 06:21:18;;;;;;;7.47;1.90;;;5.40;1.00;;;;;;5091487;28;20232;-86
2021/12/11 06:23:47;;;;;;;10.37;2.10;;;5.40;1.00;;;;;;5091323;28;20259;-87
2021/12/11 06:26:14;;;;;;;7.10;2.43;;;5.40;1.00;;;;;;5091604;28;20254;-84
2021/12/11 06:28:41;;;;;;;7.27;2.67;;;5.30;1.00;;;;;;5091051;28;20262;-84
2021/12/11 06:31:17;;;;;;;9.70;1.87;;;5.20;1.00;;;;;;5091664;28;20230;-84
2021/12/11 06:33:44;;;;;;;6.00;2.27;;;5.30;1.00;;;;;;5090737;28;20233;-83
2021/12/11 06:36:13;;;;;;;4.77;2.83;;;5.20;1.00;;;;;;5077081;28;20267;-84
2021/12/11 06:38:42;;;;;;;7.30;3.10;;;5.20;1.00;;;;;;5077499;28;20206;-82
2021/12/11 06:41:13;;;;;;;7.23;2.30;;;5.20;1.00;;;;;;5069482;28;20559;-85
2021/12/11 06:43:40;;;;;;;6.10;1.93;;;5.30;1.00;;;;;;5070604;28;20259;-84
2021/12/11 06:46:09;;;;;;;11.33;2.63;;;5.30;1.00;;;;;;5069693;28;20544;-85
2021/12/11 06:48:37;;;;;;;9.37;3.07;;;5.30;1.00;;;;;;5070659;28;20715;-86
2021/12/11 06:51:06;;;;;;;5.03;2.33;;;5.30;1.00;;;;;;5070141;28;20263;-73
2021/12/11 06:53:36;;;;;;;8.53;3.43;;;5.30;1.00;;;;;;5070996;28;20234;-83
2021/12/11 06:56:06;;;;;;;9.53;3.33;;;5.30;1.00;;;;;;5070713;28;20202;-80
2021/12/11 06:58:35;;;;;;;11.17;2.33;;;5.60;1.00;;;;;;5070761;28;20207;-80
2021/12/11 07:01:03;;;;;;;6.53;1.60;;;6.00;1.00;;;;;;5070703;28;20670;-83
2021/12/11 07:03:31;;;;;;;5.30;2.67;;;6.20;1.00;;;;;;5070557;28;20678;-81
2021/12/11 07:05:58;;;;;;;6.00;3.23;;;6.10;1.00;;;;;;5071188;28;20213;-82
2021/12/11 07:08:28;;;;;;;10.80;3.83;;;5.70;1.00;;;;;;5074253;28;20665;-83
2021/12/11 07:10:55;;;;;;;7.00;2.13;;;5.50;1.00;;;;;;5074141;28;20206;-82
2021/12/11 07:13:23;;;;;;;7.07;2.20;;;5.40;1.00;;;;;;5074218;28;20287;-82
2021/12/11 07:15:52;;;;;;;5.13;2.17;;;5.30;1.00;;;;;;5073701;28;20739;-82
2021/12/11 07:18:19;;;;;;;3.50;2.47;;;5.10;1.00;;;;;;5074002;28;20205;-81
2021/12/11 07:20:46;;;;;;;5.83;1.43;;;5.10;1.00;;;;;;5073754;28;20268;-82
2021/12/11 07:23:13;;;;;;;8.77;2.57;;;5.10;1.00;;;;;;5074545;28;20252;-83
2021/12/11 07:25:46;;;;;;;8.47;2.53;;;5.20;1.00;;;;;;5074032;28;20202;-82
2021/12/11 07:28:15;;;;;;;3.80;2.00;;;5.20;1.00;;;;;;5073888;28;20206;-81
2021/12/11 07:30:45;;;;;;;7.47;2.37;;;5.20;1.00;;;;;;5073586;28;20327;-80
2021/12/11 07:33:15;;;;;;;7.20;3.17;;;5.20;1.00;;;;;;5073668;28;20284;-82
2021/12/11 07:35:45;;;;;;;7.60;1.83;;;5.20;1.00;;;;;;5073895;28;20212;-84
2021/12/11 07:38:12;;;;;;;5.40;2.10;;;5.30;1.00;;;;;;5073898;28;20730;-78
2021/12/11 07:40:42;;;;;;;14.80;3.53;;;5.40;1.00;;;;;;5072875;28;20214;-83
2021/12/11 07:43:11;;;;;;;8.27;1.57;;;5.50;1.00;;;;;;5096047;28;20205;-85
2021/12/11 07:45:39;;;;;;;6.43;2.40;;;5.50;1.00;;;;;;5093921;28;20229;-85
2021/12/11 07:48:07;;;;;;;8.10;2.60;;;5.50;1.00;;;;;;5085599;28;20206;-86
2021/12/11 07:50:36;;;;;;;9.30;2.30;;;5.50;1.00;;;;;;5093855;28;20222;-84
2021/12/11 07:53:04;;;;;;;6.67;2.03;;;5.60;1.00;;;;;;5093533;28;20599;-81
2021/12/11 07:55:32;;;;;;;9.27;2.40;;;5.60;1.00;;;;;;5093584;28;20205;-83
2021/12/11 07:57:59;;;;;;;12.03;2.77;;;5.70;1.00;;;;;;5093261;28;20669;-80
2021/12/11 08:00:28;;;;;;;12.97;2.77;;;5.70;1.00;;;;;;5083591;28;20206;-81
2021/12/11 08:02:55;;;;;;;8.30;2.93;;;5.80;1.00;;;;;;5092467;28;20702;-80
2021/12/11 08:05:24;;;;;;;5.77;1.60;;;5.80;1.00;;;;;;5093210;28;20676;-82
2021/12/11 08:07:52;;;;;;;11.97;2.97;;;6.00;1.00;;;;;;5092546;28;20669;-81
2021/12/11 08:10:22;;;;;;;4.47;2.33;;;6.10;1.00;;;;;;5093435;28;20202;-85
2021/12/11 08:12:49;;;;;;;6.90;2.60;;;6.20;1.00;;;;;;5085049;28;20226;-86
2021/12/11 08:15:17;;;;;;;6.20;3.53;;;6.30;1.00;;;;;;5087215;28;20202;-88
2021/12/11 08:17:50;;;;;;;6.63;3.13;;;6.60;1.00;;;;;;5090489;28;20251;-85
2021/12/11 08:20:17;;;;;;;6.13;2.33;;;6.80;1.00;;;;;;5088415;28;20666;-84
2021/12/11 08:22:44;;;;;;;14.67;3.17;;;6.80;1.00;;;;;;5072891;28;20263;-86
2021/12/11 08:25:13;;;;;;;11.67;2.90;;;7.20;1.00;;;;;;5083351;28;20206;-76
2021/12/11 08:27:41;;;;;;;6.00;2.67;;;8.00;1.00;;;;;;5072440;28;20210;-79
2021/12/11 08:30:08;;;;;;;5.37;2.80;;;8.30;1.00;;;;;;5089405;28;20205;-77
2021/12/11 08:32:36;;;;;;;7.03;2.60;;;8.10;1.00;;;;;;5088583;28;20217;-77
2021/12/11 08:35:07;;;;;;;7.87;3.50;;;7.80;1.00;;;;;;5084121;28;20206;-77
2021/12/11 08:37:35;;;;;;;6.40;1.67;;;7.80;1.00;;;;;;5089904;28;20206;-76
2021/12/11 08:40:02;;;;;;;11.20;2.77;;;8.10;1.00;;;;;;5084324;28;20202;-77
2021/12/11 08:42:30;;;;;;;10.00;2.27;;;8.70;1.00;;;;;;5072519;28;20222;-78
2021/12/11 08:45:05;;;;;;;7.27;1.63;;;8.90;1.00;;;;;;5071817;28;20661;-78
2021/12/11 08:47:34;;;;;;;4.70;1.73;;;9.00;1.00;;;;;;5072354;28;20202;-78
2021/12/11 08:50:02;;;;;;;7.40;2.57;;;9.60;1.00;;;;;;5072260;28;20739;-77
2021/12/11 08:52:34;;;;;;;5.97;1.87;;;9.40;1.00;;;;;;5084239;28;20264;-77
2021/12/11 08:55:02;;;;;;;12.33;2.80;;;9.10;1.00;;;;;;5088692;28;20211;-77
2021/12/11 08:57:36;;;;;;;7.03;2.63;;;8.70;1.00;;;;;;5083430;28;20669;-77
2021/12/11 09:00:11;;;;;;;7.70;1.80;;;8.80;1.00;;;;;;5082959;28;20657;-78
2021/12/11 09:02:43;;;;;;;4.83;1.93;;;8.80;1.00;;;;;;5076342;28;20205;-78
2021/12/11 09:05:13;;;;;;;5.97;1.63;;;8.70;1.00;;;;;;5089156;28;20209;-75
2021/12/11 09:07:43;;;;;;;9.33;1.70;;;8.70;1.00;;;;;;5091455;28;20202;-76
2021/12/11 09:10:14;;;;;;;4.23;2.50;;;8.90;1.00;;;;;;5091685;28;20255;-75
2021/12/11 09:12:47;;;;;;;4.87;2.07;;;8.90;1.00;;;;;;5081307;28;20283;-77
2021/12/11 09:15:18;;;;;;;8.23;2.37;;;9.40;1.00;;;;;;5080320;28;20628;-77
2021/12/11 09:17:50;;;;;;;7.73;1.97;;;11.30;1.00;;;;;;5084262;28;20206;-79
2021/12/11 09:20:23;;;;;;;12.73;2.63;;;12.00;1.00;;;;;;5090387;28;20205;-74
2021/12/11 09:22:54;;;;;;;5.03;3.20;;;11.10;1.00;;;;;;5090996;28;20648;-75
2021/12/11 09:25:25;;;;;;;5.53;2.30;;;11.10;1.00;;;;;;5084639;28;20278;-77
2021/12/11 09:27:57;;;;;;;9.60;2.30;;;10.50;1.00;;;;;;5073419;28;20214;-78
2021/12/11 09:30:29;;;;;;;6.00;1.90;;;10.20;1.00;;;;;;5084785;28;20254;-77
2021/12/11 09:33:00;;;;;;;9.13;2.80;;;10.20;1.00;;;;;;5088479;28;20282;-78
2021/12/11 09:35:30;;;;;;;8.37;2.67;;;11.10;1.00;;;;;;5084080;28;20202;-78
2021/12/11 09:38:01;;;;;;;9.97;3.80;;;12.30;1.00;;;;;;5090864;28;20656;-78
2021/12/11 09:40:52;;;;;;;5.63;3.50;;;11.50;1.00;;;;;;5089812;28;20243;-78
2021/12/11 09:43:45;;;;;;;7.47;2.80;;;11.60;1.00;;;;;;5091013;28;20259;-78
2021/12/11 09:46:17;;;;;;;13.43;6.00;;;11.10;1.00;;;;;;5073100;28;20210;-77
2021/12/11 09:48:47;;;;;;;5.60;3.57;;;11.90;1.00;;;;;;5085365;28;20266;-78
2021/12/11 09:51:18;;;;;;;4.47;3.30;;;14.00;1.00;;;;;;5083438;28;20214;-78
2021/12/11 09:53:48;;;;;;;11.90;7.63;;;14.20;1.00;;;;;;5090485;28;20252;-77
2021/12/11 09:56:20;;;;;;;9.75;4.47;;;13.80;1.00;;;;;;5081278;28;20643;-77
2021/12/11 09:58:49;;;;;;;9.48;3.95;;;14.00;1.00;;;;;;5080147;28;20209;-77
2021/12/11 10:01:19;;;;;;;8.75;2.63;;;14.40;1.00;;;;;;5088304;28;20198;-78
2021/12/11 10:03:51;;;;;;;8.18;3.28;;;15.60;1.00;;;;;;5088734;28;20205;-77
2021/12/11 10:06:40;;;;;;;5.60;1.88;;;16.90;1.00;;;;;;5090451;28;20629;-77
2021/12/11 10:09:18;;;;;;;13.98;2.40;;;17.30;1.00;;;;;;5090920;28;20572;-77
2021/12/11 10:11:51;;;;;;;7.82;2.78;;;16.70;1.00;;;;;;5090531;28;20637;-77
2021/12/11 10:14:23;;;;;;;9.02;3.03;;;16.10;1.00;;;;;;5090260;28;20251;-77
2021/12/11 10:16:52;;;;;;;10.35;4.03;;;15.10;1.00;;;;;;5090524;28;20223;-77
2021/12/11 10:19:21;;;;;;;8.10;3.10;;;17.00;1.00;;;;;;5090594;28;20259;-77
2021/12/11 10:21:51;;;;;;;7.00;2.88;;;17.40;1.00;;;;;;5090752;28;20254;-77
2021/12/11 10:24:23;;;;;;;8.27;4.72;;;14.70;1.00;;;;;;5090838;28;20737;-78
2021/12/11 10:26:53;;;;;;;6.68;3.03;;;13.00;1.00;;;;;;5090243;28;20220;-78
2021/12/11 10:29:22;;;;;;;14.65;4.13;;;15.40;1.00;;;;;;5090854;28;20228;-77
2021/12/11 10:31:54;;;;;;;10.23;3.58;;;13.80;1.00;;;;;;5090443;28;20745;-78
2021/12/11 10:34:25;;;;;;;8.57;3.33;;;12.00;1.00;;;;;;5090857;28;20293;-78
2021/12/11 10:36:57;;;;;;;15.85;5.18;;;10.70;1.00;;;;;;5090387;28;20206;-78
2021/12/11 10:39:25;;;;;;;9.88;2.20;;;10.20;1.00;;;;;;5090661;28;20214;-77
2021/12/11 10:41:54;;;;;;;11.10;2.67;;;10.20;1.00;;;;;;5093048;28;21088;-78
2021/12/11 10:44:26;;;;;;;9.90;4.30;;;9.80;1.00;;;;;;5095130;28;20205;-78
2021/12/11 10:46:59;;;;;;;8.30;2.50;;;9.70;1.00;;;;;;5091242;28;20209;-78
2021/12/11 10:49:27;;;;;;;11.13;3.20;;;9.70;1.00;;;;;;5079919;28;20260;-76
2021/12/11 10:51:57;;;;;;;11.23;2.97;;;9.70;1.00;;;;;;5078842;28;20205;-78
2021/12/11 10:54:26;;;;;;;7.30;2.87;;;9.60;1.00;;;;;;5092905;28;20237;-76
2021/12/11 10:56:53;;;;;;;4.93;2.23;;;9.70;1.00;;;;;;5090061;28;20612;-76
2021/12/11 10:59:27;;;;;;;6.03;2.50;;;9.80;1.00;;;;;;5086093;28;20700;-76
2021/12/11 11:01:57;;;;;;;9.67;3.23;;;9.70;1.00;;;;;;5088589;28;20209;-78
2021/12/11 11:04:28;;;;;;;12.23;2.47;;;9.50;1.00;;;;;;5093433;28;20205;-75
2021/12/11 11:06:56;;;;;;;8.30;1.97;;;9.50;1.00;;;;;;5081562;28;20206;-74
2021/12/11 11:09:24;;;;;;;4.17;1.70;;;9.60;1.00;;;;;;5077316;28;20206;-74
2021/12/11 11:11:53;;;;;;;4.97;1.87;;;9.50;1.00;;;;;;5075153;28;20214;-74
2021/12/11 11:14:22;;;;;;;11.67;2.20;;;9.50;1.00;;;;;;5074829;28;20307;-74
2021/12/11 11:16:54;;;;;;;7.10;1.37;;;9.50;1.00;;;;;;5092277;28;20669;-73
2021/12/11 11:19:22;;;;;;;4.97;2.30;;;9.60;1.00;;;;;;5075108;28;20206;-74
2021/12/11 11:21:56;;;;;;;17.53;2.93;;;9.60;1.00;;;;;;5086319;28;20729;-74
2021/12/11 11:24:25;;;;;;;5.43;2.03;;;9.90;1.00;;;;;;5080028;28;20576;-76
2021/12/11 11:26:53;;;;;;;9.03;2.40;;;10.30;1.00;;;;;;5082591;28;20210;-75
2021/12/11 11:29:23;;;;;;;8.73;3.10;;;11.00;1.00;;;;;;5093480;28;20213;-76
2021/12/11 11:31:56;;;;;;;11.30;4.67;;;11.40;1.00;;;;;;5085386;28;20209;-74
2021/12/11 11:34:26;;;;;;;16.43;4.00;;;11.30;1.00;;;;;;5091839;28;20779;-75
2021/12/11 11:36:55;;;;;;;10.20;3.57;;;11.20;1.00;;;;;;5091104;28;20209;-76
2021/12/11 11:39:25;;;;;;;12.67;3.80;;;11.00;1.00;;;;;;5080878;28;20263;-78
2021/12/11 11:41:54;;;;;;;9.77;2.60;;;10.70;1.00;;;;;;5081838;28;20770;-73
2021/12/11 11:44:24;;;;;;;6.07;2.20;;;10.80;1.00;;;;;;5089802;28;20259;-76
2021/12/11 11:46:56;;;;;;;7.10;3.80;;;10.90;1.00;;;;;;5092100;28;20213;-74
2021/12/11 11:49:23;;;;;;;12.00;3.73;;;11.20;1.00;;;;;;5091675;28;21016;-74
2021/12/11 11:51:55;;;;;;;5.17;2.67;;;11.30;1.00;;;;;;5082217;28;20270;-78
2021/12/11 11:54:25;;;;;;;7.57;2.40;;;11.20;1.00;;;;;;5083823;28;20700;-76
2021/12/11 11:56:56;;;;;;;8.47;1.90;;;11.30;1.00;;;;;;5087879;28;20202;-77
2021/12/11 11:59:24;;;;;;;8.33;1.67;;;11.10;1.00;;;;;;5088429;28;20209;-73
2021/12/11 12:01:55;;;;;;;3.50;1.60;;;11.10;1.00;;;;;;5089843;28;20585;-71
2021/12/11 12:04:23;;;;;;;6.17;3.30;;;11.10;1.00;;;;;;5091654;28;20206;-71
2021/12/11 12:06:58;;;;;;;10.23;2.67;;;11.30;1.00;;;;;;5079482;28;20225;-71
2021/12/11 12:09:26;;;;;;;10.20;2.57;;;11.40;1.00;;;;;;5091256;28;20207;-71
2021/12/11 12:11:55;;;;;;;7.50;2.63;;;11.40;1.00;;;;;;5086503;28;20233;-71
2021/12/11 12:14:24;;;;;;;11.50;3.00;;;11.50;1.00;;;;;;5092669;28;20237;-70
2021/12/11 12:16:54;;;;;;;7.50;2.47;;;11.50;1.00;;;;;;5091095;28;20205;-72
2021/12/11 12:19:23;;;;;;;7.33;2.10;;;11.40;1.00;;;;;;5089437;28;20705;-72
2021/12/11 12:21:54;;;;;;;10.07;2.43;;;11.60;1.00;;;;;;5074605;28;20198;-71
2021/12/11 12:24:22;;;;;;;8.03;2.93;;;11.60;1.00;;;;;;5092571;28;20213;-72
2021/12/11 12:26:50;;;;;;;9.07;2.20;;;11.50;1.00;;;;;;5080755;28;20206;-72
2021/12/11 12:29:18;;;;;;;5.73;2.00;;;11.60;1.00;;;;;;5092936;28;20571;-72
2021/12/11 12:31:51;;;;;;;6.57;2.03;;;11.50;1.00;;;;;;5085874;28;20260;-72
2021/12/11 12:34:21;;;;;;;12.20;4.63;;;11.50;1.00;;;;;;5072069;28;20323;-72
2021/12/11 12:36:49;;;;;;;9.77;4.60;;;11.70;1.00;;;;;;5078370;28;20291;-73
2021/12/11 12:39:19;;;;;;;6.40;2.53;;;12.00;1.00;;;;;;5080296;28;20214;-72
2021/12/11 12:41:53;;;;;;;6.27;1.93;;;12.10;1.00;;;;;;5084809;28;20217;-75
2021/12/11 12:44:23;;;;;;;6.53;1.97;;;12.00;1.00;;;;;;5081852;28;20699;-77
2021/12/11 12:46:56;;;;;;;9.37;2.90;;;12.10;1.00;;;;;;5080889;28;20328;-73
2021/12/11 12:49:26;;;;;;;12.33;5.17;;;11.90;1.00;;;;;;5090427;28;20702;-82
2021/12/11 12:51:54;;;;;;;6.05;2.13;;;11.70;1.00;;;;;;5088104;28;20205;-72
2021/12/11 12:54:23;;;;;;;13.43;5.80;;;11.70;1.00;;;;;;5089384;28;20660;-75
2021/12/11 12:56:55;;;;;;;9.50;2.40;;;11.60;1.00;;;;;;5089230;28;20209;-73
2021/12/11 12:59:27;;;;;;;5.53;2.03;;;11.40;1.00;;;;;;5087451;28;20205;-75
2021/12/11 13:01:58;;;;;;;10.47;2.30;;;11.30;1.00;;;;;;5081951;28;20263;-75
2021/12/11 13:04:31;;;;;;;8.70;1.87;;;11.40;1.00;;;;;;5083568;28;20252;-73
2021/12/11 13:07:02;;;;;;;8.07;2.07;;;11.40;1.00;;;;;;5083297;28;20205;-76
2021/12/11 13:09:32;;;;;;;7.80;2.10;;;11.30;1.00;;;;;;5086833;28;20210;-73
2021/12/11 13:12:04;;;;;;;9.15;3.20;;;11.30;1.00;;;;;;5072896;28;20625;-73
2021/12/11 13:14:31;;;;;;;9.88;3.92;;;11.40;1.00;;;;;;5083112;28;20229;-74
2021/12/11 13:17:01;;;;;;;10.40;4.90;;;11.30;1.00;;;;;;5082570;28;20210;-75
2021/12/11 13:19:35;;;;;;;7.80;2.50;;;11.30;1.00;;;;;;5077854;28;20210;-74
2021/12/11 13:22:07;;;;;;;11.67;2.37;;;11.30;1.00;;;;;;5077866;28;20251;-72
2021/12/11 13:24:35;;;;;;;5.70;3.20;;;11.40;1.00;;;;;;5091241;28;20270;-72